sensor_id;sensor_type;location;lat;lon;timestamp;P1;durP1;ratioP1;P2;durP2;ratioP2
66425;SDS011;53237;46.158;14.604;2022-12-18T00:01:37;15.98;;;12.45;;
66425;SDS011;53237;46.158;14.604;2022-12-18T00:04:04;15.50;;;12.63;;
66425;SDS011;53237;46.158;14.604;2022-12-18T00:06:31;16.23;;;12.65;;
66425;SDS011;53237;46.158;14.604;2022-12-18T00:08:57;15.85;;;12.48;;
66425;SDS011;53237;46.158;14.604;2022-12-18T00:11:25;17.25;;;13.80;;
66425;SDS011;53237;46.158;14.604;2022-12-18T00:13:52;20.70;;;16.63;;
66425;SDS011;53237;46.158;14.604;2022-12-18T00:16:19;19.55;;;14.77;;
66425;SDS011;53237;46.158;14.604;2022-12-18T00:18:46;15.75;;;13.32;;
66425;SDS011;53237;46.158;14.604;2022-12-18T00:21:13;20.05;;;15.40;;
66425;SDS011;53237;46.158;14.604;2022-12-18T00:23:40;20.17;;;14.65;;
66425;SDS011;53237;46.158;14.604;2022-12-18T00:26:07;17.08;;;13.57;;
66425;SDS011;53237;46.158;14.604;2022-12-18T00:28:34;15.90;;;12.98;;
66425;SDS011;53237;46.158;14.604;2022-12-18T00:31:01;15.82;;;12.88;;
66425;SDS011;53237;46.158;14.604;2022-12-18T00:33:27;15.63;;;12.57;;
66425;SDS011;53237;46.158;14.604;2022-12-18T00:35:53;16.38;;;12.45;;
66425;SDS011;53237;46.158;14.604;2022-12-18T00:38:19;16.65;;;12.85;;
66425;SDS011;53237;46.158;14.604;2022-12-18T00:40:45;17.65;;;13.18;;
66425;SDS011;53237;46.158;14.604;2022-12-18T00:43:11;18.20;;;14.15;;
66425;SDS011;53237;46.158;14.604;2022-12-18T00:45:37;18.05;;;13.98;;
66425;SDS011;53237;46.158;14.604;2022-12-18T00:48:03;18.60;;;13.88;;
66425;SDS011;53237;46.158;14.604;2022-12-18T00:50:29;18.15;;;13.95;;
66425;SDS011;53237;46.158;14.604;2022-12-18T00:52:55;18.67;;;14.60;;
66425;SDS011;53237;46.158;14.604;2022-12-18T00:55:21;17.85;;;13.85;;
66425;SDS011;53237;46.158;14.604;2022-12-18T00:57:47;20.20;;;14.68;;
66425;SDS011;53237;46.158;14.604;2022-12-18T01:00:14;20.05;;;14.57;;
66425;SDS011;53237;46.158;14.604;2022-12-18T01:02:40;21.25;;;16.10;;
66425;SDS011;53237;46.158;14.604;2022-12-18T01:05:07;19.73;;;14.77;;
66425;SDS011;53237;46.158;14.604;2022-12-18T01:07:33;17.63;;;13.25;;
66425;SDS011;53237;46.158;14.604;2022-12-18T01:09:59;20.73;;;14.80;;
66425;SDS011;53237;46.158;14.604;2022-12-18T01:12:25;24.42;;;17.00;;
66425;SDS011;53237;46.158;14.604;2022-12-18T01:14:51;24.77;;;17.65;;
66425;SDS011;53237;46.158;14.604;2022-12-18T01:17:17;25.08;;;17.98;;
66425;SDS011;53237;46.158;14.604;2022-12-18T01:19:43;24.52;;;17.45;;
66425;SDS011;53237;46.158;14.604;2022-12-18T01:22:09;23.88;;;17.02;;
66425;SDS011;53237;46.158;14.604;2022-12-18T01:24:35;22.50;;;16.23;;
66425;SDS011;53237;46.158;14.604;2022-12-18T01:27:01;24.42;;;17.70;;
66425;SDS011;53237;46.158;14.604;2022-12-18T01:29:27;18.63;;;14.88;;
66425;SDS011;53237;46.158;14.604;2022-12-18T01:31:54;20.85;;;16.10;;
66425;SDS011;53237;46.158;14.604;2022-12-18T01:34:21;20.88;;;15.63;;
66425;SDS011;53237;46.158;14.604;2022-12-18T01:36:47;20.38;;;15.43;;
66425;SDS011;53237;46.158;14.604;2022-12-18T01:39:13;20.88;;;16.00;;
66425;SDS011;53237;46.158;14.604;2022-12-18T01:41:40;20.63;;;14.65;;
66425;SDS011;53237;46.158;14.604;2022-12-18T01:47:12;22.40;;;15.40;;
66425;SDS011;53237;46.158;14.604;2022-12-18T01:49:39;20.25;;;14.93;;
66425;SDS011;53237;46.158;14.604;2022-12-18T01:52:05;19.98;;;15.73;;
66425;SDS011;53237;46.158;14.604;2022-12-18T01:54:31;24.17;;;16.65;;
66425;SDS011;53237;46.158;14.604;2022-12-18T01:56:58;24.27;;;17.80;;
66425;SDS011;53237;46.158;14.604;2022-12-18T01:59:25;23.20;;;17.25;;
66425;SDS011;53237;46.158;14.604;2022-12-18T02:01:52;26.15;;;18.55;;
66425;SDS011;53237;46.158;14.604;2022-12-18T02:04:22;20.10;;;14.55;;
66425;SDS011;53237;46.158;14.604;2022-12-18T02:07:35;18.55;;;14.20;;
66425;SDS011;53237;46.158;14.604;2022-12-18T02:09:36;18.85;;;14.63;;
66425;SDS011;53237;46.158;14.604;2022-12-18T02:12:16;21.10;;;13.98;;
66425;SDS011;53237;46.158;14.604;2022-12-18T02:17:31;21.13;;;15.65;;
66425;SDS011;53237;46.158;14.604;2022-12-18T02:20:08;19.90;;;15.05;;
66425;SDS011;53237;46.158;14.604;2022-12-18T02:27:33;22.23;;;16.17;;
66425;SDS011;53237;46.158;14.604;2022-12-18T02:30:01;21.80;;;15.93;;
66425;SDS011;53237;46.158;14.604;2022-12-18T02:32:28;20.65;;;14.88;;
66425;SDS011;53237;46.158;14.604;2022-12-18T02:34:56;22.75;;;16.35;;
66425;SDS011;53237;46.158;14.604;2022-12-18T02:37:22;20.60;;;14.15;;
66425;SDS011;53237;46.158;14.604;2022-12-18T02:39:49;20.80;;;15.27;;
66425;SDS011;53237;46.158;14.604;2022-12-18T02:42:17;19.63;;;14.38;;
66425;SDS011;53237;46.158;14.604;2022-12-18T02:44:44;19.95;;;15.07;;
66425;SDS011;53237;46.158;14.604;2022-12-18T02:47:11;19.15;;;13.93;;
66425;SDS011;53237;46.158;14.604;2022-12-18T02:52:31;19.85;;;15.00;;
66425;SDS011;53237;46.158;14.604;2022-12-18T02:59:58;26.77;;;18.40;;
66425;SDS011;53237;46.158;14.604;2022-12-18T03:05:07;27.77;;;19.17;;
66425;SDS011;53237;46.158;14.604;2022-12-18T03:10:12;23.85;;;17.60;;
66425;SDS011;53237;46.158;14.604;2022-12-18T03:12:40;23.50;;;17.30;;
66425;SDS011;53237;46.158;14.604;2022-12-18T03:15:16;24.23;;;18.23;;
66425;SDS011;53237;46.158;14.604;2022-12-18T03:17:45;24.00;;;17.00;;
66425;SDS011;53237;46.158;14.604;2022-12-18T03:20:13;24.27;;;16.95;;
66425;SDS011;53237;46.158;14.604;2022-12-18T03:22:40;24.00;;;17.20;;
66425;SDS011;53237;46.158;14.604;2022-12-18T03:25:09;25.65;;;17.33;;
66425;SDS011;53237;46.158;14.604;2022-12-18T03:27:37;25.50;;;17.92;;
66425;SDS011;53237;46.158;14.604;2022-12-18T03:30:05;24.10;;;16.52;;
66425;SDS011;53237;46.158;14.604;2022-12-18T03:32:39;21.75;;;15.40;;
66425;SDS011;53237;46.158;14.604;2022-12-18T03:35:07;18.13;;;14.57;;
66425;SDS011;53237;46.158;14.604;2022-12-18T03:37:33;19.05;;;14.27;;
66425;SDS011;53237;46.158;14.604;2022-12-18T03:40:00;19.83;;;13.05;;
66425;SDS011;53237;46.158;14.604;2022-12-18T03:42:28;19.70;;;15.05;;
66425;SDS011;53237;46.158;14.604;2022-12-18T03:50:11;17.85;;;13.77;;
66425;SDS011;53237;46.158;14.604;2022-12-18T03:52:49;21.20;;;15.30;;
66425;SDS011;53237;46.158;14.604;2022-12-18T03:55:18;21.92;;;15.07;;
66425;SDS011;53237;46.158;14.604;2022-12-18T03:57:45;18.83;;;14.80;;
66425;SDS011;53237;46.158;14.604;2022-12-18T04:00:12;21.38;;;14.88;;
66425;SDS011;53237;46.158;14.604;2022-12-18T04:02:40;21.63;;;15.60;;
66425;SDS011;53237;46.158;14.604;2022-12-18T04:05:08;22.15;;;15.88;;
66425;SDS011;53237;46.158;14.604;2022-12-18T04:07:35;21.98;;;15.70;;
66425;SDS011;53237;46.158;14.604;2022-12-18T04:10:02;22.30;;;15.23;;
66425;SDS011;53237;46.158;14.604;2022-12-18T04:12:29;19.90;;;14.68;;
66425;SDS011;53237;46.158;14.604;2022-12-18T04:14:55;20.00;;;15.05;;
66425;SDS011;53237;46.158;14.604;2022-12-18T04:17:21;20.35;;;15.05;;
66425;SDS011;53237;46.158;14.604;2022-12-18T04:19:47;23.38;;;17.15;;
66425;SDS011;53237;46.158;14.604;2022-12-18T04:22:13;19.10;;;14.45;;
66425;SDS011;53237;46.158;14.604;2022-12-18T04:24:39;20.10;;;15.00;;
66425;SDS011;53237;46.158;14.604;2022-12-18T04:27:05;23.35;;;17.13;;
66425;SDS011;53237;46.158;14.604;2022-12-18T04:29:31;20.35;;;15.45;;
66425;SDS011;53237;46.158;14.604;2022-12-18T04:31:57;20.70;;;14.85;;
66425;SDS011;53237;46.158;14.604;2022-12-18T04:34:23;19.48;;;14.70;;
66425;SDS011;53237;46.158;14.604;2022-12-18T04:36:49;19.33;;;13.90;;
66425;SDS011;53237;46.158;14.604;2022-12-18T04:39:15;23.73;;;16.48;;
66425;SDS011;53237;46.158;14.604;2022-12-18T04:41:43;20.35;;;14.93;;
66425;SDS011;53237;46.158;14.604;2022-12-18T04:44:09;21.33;;;15.27;;
66425;SDS011;53237;46.158;14.604;2022-12-18T04:46:35;21.33;;;15.80;;
66425;SDS011;53237;46.158;14.604;2022-12-18T04:49:01;21.38;;;15.38;;
66425;SDS011;53237;46.158;14.604;2022-12-18T04:51:27;23.75;;;16.10;;
66425;SDS011;53237;46.158;14.604;2022-12-18T04:53:53;22.38;;;15.82;;
66425;SDS011;53237;46.158;14.604;2022-12-18T04:56:19;20.90;;;15.98;;
66425;SDS011;53237;46.158;14.604;2022-12-18T04:58:45;19.10;;;14.93;;
66425;SDS011;53237;46.158;14.604;2022-12-18T05:01:12;18.35;;;13.95;;
66425;SDS011;53237;46.158;14.604;2022-12-18T05:03:38;19.92;;;15.27;;
66425;SDS011;53237;46.158;14.604;2022-12-18T05:06:04;20.25;;;15.60;;
66425;SDS011;53237;46.158;14.604;2022-12-18T05:08:31;18.70;;;14.43;;
66425;SDS011;53237;46.158;14.604;2022-12-18T05:10:58;24.67;;;17.08;;
66425;SDS011;53237;46.158;14.604;2022-12-18T05:13:24;22.55;;;16.88;;
66425;SDS011;53237;46.158;14.604;2022-12-18T05:15:53;21.35;;;15.63;;
66425;SDS011;53237;46.158;14.604;2022-12-18T05:18:19;19.98;;;15.25;;
66425;SDS011;53237;46.158;14.604;2022-12-18T05:20:45;22.60;;;16.13;;
66425;SDS011;53237;46.158;14.604;2022-12-18T05:23:11;22.13;;;17.02;;
66425;SDS011;53237;46.158;14.604;2022-12-18T05:25:37;23.70;;;17.05;;
66425;SDS011;53237;46.158;14.604;2022-12-18T05:28:03;23.00;;;16.35;;
66425;SDS011;53237;46.158;14.604;2022-12-18T05:30:29;21.92;;;15.82;;
66425;SDS011;53237;46.158;14.604;2022-12-18T05:32:55;23.42;;;16.67;;
66425;SDS011;53237;46.158;14.604;2022-12-18T05:35:21;21.55;;;15.52;;
66425;SDS011;53237;46.158;14.604;2022-12-18T05:37:47;19.77;;;15.50;;
66425;SDS011;53237;46.158;14.604;2022-12-18T05:40:13;18.60;;;14.73;;
66425;SDS011;53237;46.158;14.604;2022-12-18T05:42:39;22.33;;;16.67;;
66425;SDS011;53237;46.158;14.604;2022-12-18T05:45:05;22.33;;;15.70;;
66425;SDS011;53237;46.158;14.604;2022-12-18T05:47:31;21.77;;;15.93;;
66425;SDS011;53237;46.158;14.604;2022-12-18T05:49:57;20.90;;;15.90;;
66425;SDS011;53237;46.158;14.604;2022-12-18T05:52:23;21.50;;;15.73;;
66425;SDS011;53237;46.158;14.604;2022-12-18T05:54:49;22.08;;;15.82;;
66425;SDS011;53237;46.158;14.604;2022-12-18T05:57:15;23.00;;;16.13;;
66425;SDS011;53237;46.158;14.604;2022-12-18T05:59:41;20.38;;;15.15;;
66425;SDS011;53237;46.158;14.604;2022-12-18T06:02:07;26.42;;;17.50;;
66425;SDS011;53237;46.158;14.604;2022-12-18T06:04:33;25.60;;;18.17;;
66425;SDS011;53237;46.158;14.604;2022-12-18T06:06:59;21.95;;;16.00;;
66425;SDS011;53237;46.158;14.604;2022-12-18T06:09:25;23.20;;;16.65;;
66425;SDS011;53237;46.158;14.604;2022-12-18T06:11:51;22.40;;;16.90;;
66425;SDS011;53237;46.158;14.604;2022-12-18T06:14:17;27.88;;;19.35;;
66425;SDS011;53237;46.158;14.604;2022-12-18T06:16:43;27.85;;;19.35;;
66425;SDS011;53237;46.158;14.604;2022-12-18T06:19:13;27.35;;;19.02;;
66425;SDS011;53237;46.158;14.604;2022-12-18T06:21:39;25.02;;;18.55;;
66425;SDS011;53237;46.158;14.604;2022-12-18T06:24:06;21.85;;;17.02;;
66425;SDS011;53237;46.158;14.604;2022-12-18T06:26:32;24.65;;;16.67;;
66425;SDS011;53237;46.158;14.604;2022-12-18T06:28:58;26.73;;;19.42;;
66425;SDS011;53237;46.158;14.604;2022-12-18T06:31:24;24.23;;;18.10;;
66425;SDS011;53237;46.158;14.604;2022-12-18T06:33:50;22.15;;;16.40;;
66425;SDS011;53237;46.158;14.604;2022-12-18T06:36:16;23.83;;;18.42;;
66425;SDS011;53237;46.158;14.604;2022-12-18T06:38:43;27.65;;;20.17;;
66425;SDS011;53237;46.158;14.604;2022-12-18T06:41:10;30.58;;;21.20;;
66425;SDS011;53237;46.158;14.604;2022-12-18T06:43:36;21.60;;;16.90;;
66425;SDS011;53237;46.158;14.604;2022-12-18T06:46:02;26.17;;;17.63;;
66425;SDS011;53237;46.158;14.604;2022-12-18T06:48:29;25.10;;;18.60;;
66425;SDS011;53237;46.158;14.604;2022-12-18T06:50:55;25.83;;;18.90;;
66425;SDS011;53237;46.158;14.604;2022-12-18T06:53:21;26.73;;;19.50;;
66425;SDS011;53237;46.158;14.604;2022-12-18T06:55:48;23.83;;;17.20;;
66425;SDS011;53237;46.158;14.604;2022-12-18T06:58:14;26.05;;;19.08;;
66425;SDS011;53237;46.158;14.604;2022-12-18T07:00:40;21.38;;;16.15;;
66425;SDS011;53237;46.158;14.604;2022-12-18T07:03:06;22.85;;;16.90;;
66425;SDS011;53237;46.158;14.604;2022-12-18T07:05:32;24.25;;;17.75;;
66425;SDS011;53237;46.158;14.604;2022-12-18T07:07:59;23.92;;;17.85;;
66425;SDS011;53237;46.158;14.604;2022-12-18T07:10:25;21.52;;;16.83;;
66425;SDS011;53237;46.158;14.604;2022-12-18T07:12:51;24.58;;;17.70;;
66425;SDS011;53237;46.158;14.604;2022-12-18T07:15:17;21.98;;;16.38;;
66425;SDS011;53237;46.158;14.604;2022-12-18T07:17:43;23.45;;;17.13;;
66425;SDS011;53237;46.158;14.604;2022-12-18T07:20:09;25.23;;;18.70;;
66425;SDS011;53237;46.158;14.604;2022-12-18T07:22:35;27.85;;;21.60;;
66425;SDS011;53237;46.158;14.604;2022-12-18T07:25:01;22.83;;;17.13;;
66425;SDS011;53237;46.158;14.604;2022-12-18T07:27:27;25.83;;;19.33;;
66425;SDS011;53237;46.158;14.604;2022-12-18T07:29:53;27.95;;;20.35;;
66425;SDS011;53237;46.158;14.604;2022-12-18T07:32:19;27.13;;;19.80;;
66425;SDS011;53237;46.158;14.604;2022-12-18T07:34:48;29.55;;;20.25;;
66425;SDS011;53237;46.158;14.604;2022-12-18T07:37:14;24.38;;;18.10;;
66425;SDS011;53237;46.158;14.604;2022-12-18T07:39:40;23.27;;;17.63;;
66425;SDS011;53237;46.158;14.604;2022-12-18T07:42:06;24.58;;;18.52;;
66425;SDS011;53237;46.158;14.604;2022-12-18T07:44:51;25.00;;;18.17;;
66425;SDS011;53237;46.158;14.604;2022-12-18T07:47:17;23.10;;;17.23;;
66425;SDS011;53237;46.158;14.604;2022-12-18T07:49:43;25.98;;;17.92;;
66425;SDS011;53237;46.158;14.604;2022-12-18T07:52:09;24.77;;;16.60;;
66425;SDS011;53237;46.158;14.604;2022-12-18T07:54:37;23.75;;;17.65;;
66425;SDS011;53237;46.158;14.604;2022-12-18T07:57:03;21.85;;;16.45;;
66425;SDS011;53237;46.158;14.604;2022-12-18T07:59:29;24.00;;;17.23;;
66425;SDS011;53237;46.158;14.604;2022-12-18T08:01:55;23.55;;;17.23;;
66425;SDS011;53237;46.158;14.604;2022-12-18T08:04:21;23.35;;;16.55;;
66425;SDS011;53237;46.158;14.604;2022-12-18T08:06:47;24.17;;;18.30;;
66425;SDS011;53237;46.158;14.604;2022-12-18T08:09:13;25.58;;;18.30;;
66425;SDS011;53237;46.158;14.604;2022-12-18T08:11:39;25.20;;;18.98;;
66425;SDS011;53237;46.158;14.604;2022-12-18T08:14:05;23.35;;;17.60;;
66425;SDS011;53237;46.158;14.604;2022-12-18T08:16:31;25.50;;;18.77;;
66425;SDS011;53237;46.158;14.604;2022-12-18T08:18:57;29.80;;;21.17;;
66425;SDS011;53237;46.158;14.604;2022-12-18T08:21:25;26.17;;;19.15;;
66425;SDS011;53237;46.158;14.604;2022-12-18T08:23:51;28.63;;;20.20;;
66425;SDS011;53237;46.158;14.604;2022-12-18T08:26:17;30.23;;;21.52;;
66425;SDS011;53237;46.158;14.604;2022-12-18T08:28:44;36.08;;;23.70;;
66425;SDS011;53237;46.158;14.604;2022-12-18T08:31:10;31.17;;;23.00;;
66425;SDS011;53237;46.158;14.604;2022-12-18T08:33:36;38.05;;;27.70;;
66425;SDS011;53237;46.158;14.604;2022-12-18T08:36:03;34.78;;;25.13;;
66425;SDS011;53237;46.158;14.604;2022-12-18T08:38:29;33.10;;;24.10;;
66425;SDS011;53237;46.158;14.604;2022-12-18T08:41:02;35.17;;;25.20;;
66425;SDS011;53237;46.158;14.604;2022-12-18T08:43:28;31.75;;;24.25;;
66425;SDS011;53237;46.158;14.604;2022-12-18T08:46:16;32.30;;;24.10;;
66425;SDS011;53237;46.158;14.604;2022-12-18T08:48:43;32.25;;;24.13;;
66425;SDS011;53237;46.158;14.604;2022-12-18T08:51:09;30.98;;;23.15;;
66425;SDS011;53237;46.158;14.604;2022-12-18T08:53:35;31.13;;;23.05;;
66425;SDS011;53237;46.158;14.604;2022-12-18T08:56:02;34.08;;;24.75;;
66425;SDS011;53237;46.158;14.604;2022-12-18T08:58:28;33.55;;;22.58;;
66425;SDS011;53237;46.158;14.604;2022-12-18T09:00:59;31.80;;;23.58;;
66425;SDS011;53237;46.158;14.604;2022-12-18T09:03:25;32.53;;;23.50;;
66425;SDS011;53237;46.158;14.604;2022-12-18T09:05:51;30.73;;;22.73;;
66425;SDS011;53237;46.158;14.604;2022-12-18T09:08:17;29.75;;;21.60;;
66425;SDS011;53237;46.158;14.604;2022-12-18T09:10:44;29.63;;;21.30;;
66425;SDS011;53237;46.158;14.604;2022-12-18T09:13:11;30.75;;;22.05;;
66425;SDS011;53237;46.158;14.604;2022-12-18T09:15:44;29.52;;;21.38;;
66425;SDS011;53237;46.158;14.604;2022-12-18T09:18:10;27.95;;;21.20;;
66425;SDS011;53237;46.158;14.604;2022-12-18T09:20:37;29.10;;;20.42;;
66425;SDS011;53237;46.158;14.604;2022-12-18T09:23:03;28.27;;;20.90;;
66425;SDS011;53237;46.158;14.604;2022-12-18T09:25:29;29.27;;;20.55;;
66425;SDS011;53237;46.158;14.604;2022-12-18T09:28:00;27.95;;;20.52;;
66425;SDS011;53237;46.158;14.604;2022-12-18T09:30:27;29.63;;;20.77;;
66425;SDS011;53237;46.158;14.604;2022-12-18T09:32:53;28.02;;;20.00;;
66425;SDS011;53237;46.158;14.604;2022-12-18T09:35:19;27.95;;;20.38;;
66425;SDS011;53237;46.158;14.604;2022-12-18T09:37:45;26.15;;;19.60;;
66425;SDS011;53237;46.158;14.604;2022-12-18T09:40:18;26.90;;;18.88;;
66425;SDS011;53237;46.158;14.604;2022-12-18T09:42:45;26.48;;;20.27;;
66425;SDS011;53237;46.158;14.604;2022-12-18T09:45:14;26.67;;;19.88;;
66425;SDS011;53237;46.158;14.604;2022-12-18T09:47:40;38.00;;;24.38;;
66425;SDS011;53237;46.158;14.604;2022-12-18T09:50:24;37.75;;;25.88;;
66425;SDS011;53237;46.158;14.604;2022-12-18T09:52:53;32.38;;;23.15;;
66425;SDS011;53237;46.158;14.604;2022-12-18T09:57:55;31.92;;;22.08;;
66425;SDS011;53237;46.158;14.604;2022-12-18T10:00:22;27.83;;;21.17;;
66425;SDS011;53237;46.158;14.604;2022-12-18T10:02:49;26.50;;;19.40;;
66425;SDS011;53237;46.158;14.604;2022-12-18T10:05:20;28.25;;;20.20;;
66425;SDS011;53237;46.158;14.604;2022-12-18T10:07:53;29.40;;;20.17;;
66425;SDS011;53237;46.158;14.604;2022-12-18T10:10:23;26.15;;;19.45;;
66425;SDS011;53237;46.158;14.604;2022-12-18T10:12:56;26.38;;;18.92;;
66425;SDS011;53237;46.158;14.604;2022-12-18T10:15:26;27.15;;;20.15;;
66425;SDS011;53237;46.158;14.604;2022-12-18T10:17:58;26.25;;;19.13;;
66425;SDS011;53237;46.158;14.604;2022-12-18T10:22:57;27.98;;;20.17;;
66425;SDS011;53237;46.158;14.604;2022-12-18T10:25:36;26.42;;;19.70;;
66425;SDS011;53237;46.158;14.604;2022-12-18T10:28:09;25.83;;;19.42;;
66425;SDS011;53237;46.158;14.604;2022-12-18T10:30:36;25.90;;;19.50;;
66425;SDS011;53237;46.158;14.604;2022-12-18T10:33:04;29.80;;;20.63;;
66425;SDS011;53237;46.158;14.604;2022-12-18T10:35:30;29.00;;;20.50;;
66425;SDS011;53237;46.158;14.604;2022-12-18T10:40:32;30.65;;;19.98;;
66425;SDS011;53237;46.158;14.604;2022-12-18T10:43:05;27.80;;;19.70;;
66425;SDS011;53237;46.158;14.604;2022-12-18T10:45:36;28.52;;;20.08;;
66425;SDS011;53237;46.158;14.604;2022-12-18T10:48:02;26.70;;;20.15;;
66425;SDS011;53237;46.158;14.604;2022-12-18T10:50:30;25.42;;;18.60;;
66425;SDS011;53237;46.158;14.604;2022-12-18T10:52:57;26.00;;;18.83;;
66425;SDS011;53237;46.158;14.604;2022-12-18T10:55:24;27.88;;;20.27;;
66425;SDS011;53237;46.158;14.604;2022-12-18T10:57:53;25.42;;;19.63;;
66425;SDS011;53237;46.158;14.604;2022-12-18T11:02:45;29.40;;;20.10;;
66425;SDS011;53237;46.158;14.604;2022-12-18T11:05:28;27.70;;;20.30;;
66425;SDS011;53237;46.158;14.604;2022-12-18T11:07:54;27.95;;;20.08;;
66425;SDS011;53237;46.158;14.604;2022-12-18T11:10:22;29.08;;;20.75;;
66425;SDS011;53237;46.158;14.604;2022-12-18T11:12:48;28.25;;;19.45;;
66425;SDS011;53237;46.158;14.604;2022-12-18T11:15:21;26.50;;;19.23;;
66425;SDS011;53237;46.158;14.604;2022-12-18T11:17:49;28.80;;;21.00;;
66425;SDS011;53237;46.158;14.604;2022-12-18T11:20:32;24.45;;;17.48;;
66425;SDS011;53237;46.158;14.604;2022-12-18T11:23:00;24.42;;;18.58;;
66425;SDS011;53237;46.158;14.604;2022-12-18T11:25:27;25.83;;;17.63;;
66425;SDS011;53237;46.158;14.604;2022-12-18T11:28:00;25.27;;;17.40;;
66425;SDS011;53237;46.158;14.604;2022-12-18T11:30:28;23.48;;;16.88;;
66425;SDS011;53237;46.158;14.604;2022-12-18T11:40:42;19.80;;;15.98;;
66425;SDS011;53237;46.158;14.604;2022-12-18T11:43:11;20.42;;;15.77;;
66425;SDS011;53237;46.158;14.604;2022-12-18T11:45:46;20.23;;;14.68;;
66425;SDS011;53237;46.158;14.604;2022-12-18T11:48:17;21.02;;;14.80;;
66425;SDS011;53237;46.158;14.604;2022-12-18T11:53:10;19.50;;;14.52;;
66425;SDS011;53237;46.158;14.604;2022-12-18T12:00:47;19.10;;;14.50;;
66425;SDS011;53237;46.158;14.604;2022-12-18T12:03:24;20.05;;;14.27;;
66425;SDS011;53237;46.158;14.604;2022-12-18T12:08:41;19.98;;;14.63;;
66425;SDS011;53237;46.158;14.604;2022-12-18T12:11:33;18.23;;;13.70;;
66425;SDS011;53237;46.158;14.604;2022-12-18T12:19:27;20.05;;;13.40;;
66425;SDS011;53237;46.158;14.604;2022-12-18T12:26:52;21.17;;;15.85;;
66425;SDS011;53237;46.158;14.604;2022-12-18T12:36:54;23.17;;;16.15;;
66425;SDS011;53237;46.158;14.604;2022-12-18T12:39:23;20.77;;;14.48;;
66425;SDS011;53237;46.158;14.604;2022-12-18T12:41:52;18.55;;;13.65;;
66425;SDS011;53237;46.158;14.604;2022-12-18T12:44:42;19.83;;;14.18;;
66425;SDS011;53237;46.158;14.604;2022-12-18T12:47:16;19.30;;;14.35;;
66425;SDS011;53237;46.158;14.604;2022-12-18T12:49:44;20.27;;;14.70;;
66425;SDS011;53237;46.158;14.604;2022-12-18T12:52:14;20.50;;;14.88;;
66425;SDS011;53237;46.158;14.604;2022-12-18T12:54:41;19.25;;;14.43;;
66425;SDS011;53237;46.158;14.604;2022-12-18T13:05:01;20.23;;;13.75;;
66425;SDS011;53237;46.158;14.604;2022-12-18T13:07:35;18.25;;;13.43;;
66425;SDS011;53237;46.158;14.604;2022-12-18T13:13:07;20.05;;;13.85;;
66425;SDS011;53237;46.158;14.604;2022-12-18T13:16:02;19.65;;;13.43;;
66425;SDS011;53237;46.158;14.604;2022-12-18T13:18:29;16.23;;;12.13;;
66425;SDS011;53237;46.158;14.604;2022-12-18T13:31:10;17.10;;;13.02;;
66425;SDS011;53237;46.158;14.604;2022-12-18T13:41:35;17.73;;;12.50;;
66425;SDS011;53237;46.158;14.604;2022-12-18T13:44:11;18.48;;;13.25;;
66425;SDS011;53237;46.158;14.604;2022-12-18T13:46:44;18.05;;;12.80;;
66425;SDS011;53237;46.158;14.604;2022-12-18T13:51:41;17.25;;;12.55;;
66425;SDS011;53237;46.158;14.604;2022-12-18T13:54:50;19.90;;;13.93;;
66425;SDS011;53237;46.158;14.604;2022-12-18T13:56:57;18.60;;;12.85;;
66425;SDS011;53237;46.158;14.604;2022-12-18T13:59:33;18.38;;;13.35;;
66425;SDS011;53237;46.158;14.604;2022-12-18T14:02:09;20.20;;;14.55;;
66425;SDS011;53237;46.158;14.604;2022-12-18T14:04:38;18.95;;;13.05;;
66425;SDS011;53237;46.158;14.604;2022-12-18T14:07:05;18.55;;;13.35;;
66425;SDS011;53237;46.158;14.604;2022-12-18T14:09:36;17.75;;;12.95;;
66425;SDS011;53237;46.158;14.604;2022-12-18T14:12:03;17.73;;;13.25;;
66425;SDS011;53237;46.158;14.604;2022-12-18T14:15:02;16.58;;;12.40;;
66425;SDS011;53237;46.158;14.604;2022-12-18T14:17:28;18.40;;;13.40;;
66425;SDS011;53237;46.158;14.604;2022-12-18T14:19:56;20.23;;;13.95;;
66425;SDS011;53237;46.158;14.604;2022-12-18T14:22:24;17.60;;;13.07;;
66425;SDS011;53237;46.158;14.604;2022-12-18T14:25:05;17.98;;;13.77;;
66425;SDS011;53237;46.158;14.604;2022-12-18T14:27:36;17.33;;;12.93;;
66425;SDS011;53237;46.158;14.604;2022-12-18T14:30:18;19.40;;;13.77;;
66425;SDS011;53237;46.158;14.604;2022-12-18T14:35:34;23.42;;;13.98;;
66425;SDS011;53237;46.158;14.604;2022-12-18T14:40:36;18.58;;;13.18;;
66425;SDS011;53237;46.158;14.604;2022-12-18T14:43:02;21.70;;;14.52;;
66425;SDS011;53237;46.158;14.604;2022-12-18T14:48:01;18.20;;;13.23;;
66425;SDS011;53237;46.158;14.604;2022-12-18T14:50:44;21.20;;;14.15;;
66425;SDS011;53237;46.158;14.604;2022-12-18T14:53:20;19.13;;;14.18;;
66425;SDS011;53237;46.158;14.604;2022-12-18T14:55:49;21.40;;;15.25;;
66425;SDS011;53237;46.158;14.604;2022-12-18T14:58:15;19.38;;;14.32;;
66425;SDS011;53237;46.158;14.604;2022-12-18T15:00:43;20.20;;;14.32;;
66425;SDS011;53237;46.158;14.604;2022-12-18T15:03:09;21.10;;;15.75;;
66425;SDS011;53237;46.158;14.604;2022-12-18T15:05:35;19.52;;;15.45;;
66425;SDS011;53237;46.158;14.604;2022-12-18T15:08:02;22.70;;;15.57;;
66425;SDS011;53237;46.158;14.604;2022-12-18T15:10:32;18.27;;;13.70;;
66425;SDS011;53237;46.158;14.604;2022-12-18T15:20:45;20.52;;;14.77;;
66425;SDS011;53237;46.158;14.604;2022-12-18T15:26:07;20.48;;;14.68;;
66425;SDS011;53237;46.158;14.604;2022-12-18T15:33:45;19.40;;;14.02;;
66425;SDS011;53237;46.158;14.604;2022-12-18T15:36:12;19.48;;;15.02;;
66425;SDS011;53237;46.158;14.604;2022-12-18T15:38:38;18.45;;;13.95;;
66425;SDS011;53237;46.158;14.604;2022-12-18T15:41:05;18.45;;;13.85;;
66425;SDS011;53237;46.158;14.604;2022-12-18T15:43:31;19.52;;;13.93;;
66425;SDS011;53237;46.158;14.604;2022-12-18T15:46:05;18.45;;;13.52;;
66425;SDS011;53237;46.158;14.604;2022-12-18T15:48:32;19.20;;;13.85;;
66425;SDS011;53237;46.158;14.604;2022-12-18T15:50:59;19.27;;;13.35;;
66425;SDS011;53237;46.158;14.604;2022-12-18T15:53:27;18.88;;;14.30;;
66425;SDS011;53237;46.158;14.604;2022-12-18T15:55:55;19.70;;;13.90;;
66425;SDS011;53237;46.158;14.604;2022-12-18T15:58:40;19.90;;;15.23;;
66425;SDS011;53237;46.158;14.604;2022-12-18T16:01:07;22.27;;;15.07;;
66425;SDS011;53237;46.158;14.604;2022-12-18T16:03:33;21.40;;;16.05;;
66425;SDS011;53237;46.158;14.604;2022-12-18T16:05:59;22.45;;;16.52;;
66425;SDS011;53237;46.158;14.604;2022-12-18T16:08:27;24.13;;;17.00;;
66425;SDS011;53237;46.158;14.604;2022-12-18T16:10:54;21.17;;;15.45;;
66425;SDS011;53237;46.158;14.604;2022-12-18T16:13:20;20.80;;;15.20;;
66425;SDS011;53237;46.158;14.604;2022-12-18T16:15:46;23.42;;;16.13;;
66425;SDS011;53237;46.158;14.604;2022-12-18T16:18:12;22.58;;;16.23;;
66425;SDS011;53237;46.158;14.604;2022-12-18T16:20:39;23.13;;;16.27;;
66425;SDS011;53237;46.158;14.604;2022-12-18T16:23:05;20.58;;;15.20;;
66425;SDS011;53237;46.158;14.604;2022-12-18T16:25:31;22.63;;;16.08;;